Time;durP1;ratioP1;P1;durP2;ratioP2;P2;SDS_P1;SDS_P2;PMS_P1;PMS_P2;Temp;Humidity;BMP_temperature;BMP_pressure;BME280_temperature;BME280_humidity;BME280_pressure;Samples;Min_cycle;Max_cycle;Signal;HPM_P1;HPM_P2
2021/11/04 00:00:05;;;;;;;18.90;13.57;;;;;;;11.71;67.11;99017.47;5048350;27;96830;-78
2021/11/04 00:02:38;;;;;;;21.17;13.93;;;;;;;11.73;67.47;99024.31;5038264;27;97812;-83
2021/11/04 00:05:05;;;;;;;20.20;12.15;;;;;;;11.67;67.58;99021.22;5036343;27;98333;-79
2021/11/04 00:07:31;;;;;;;17.08;13.70;;;;;;;11.70;67.78;99026.28;5049603;27;97366;-78
2021/11/04 00:09:58;;;;;;;20.50;13.32;;;;;;;11.56;68.34;99016.59;5046093;27;97200;-78
2021/11/04 00:12:24;;;;;;;23.67;14.52;;;;;;;11.65;68.40;99023.09;5034246;27;101483;-79
2021/11/04 00:14:49;;;;;;;18.90;13.70;;;;;;;11.60;68.47;99025.13;5046119;27;98030;-79
2021/11/04 00:17:16;;;;;;;20.75;13.73;;;;;;;11.48;69.41;99016.19;5033162;27;97153;-79
2021/11/04 00:19:43;;;;;;;19.38;13.57;;;;;;;11.40;69.77;99013.16;5029489;27;96854;-79
2021/11/04 00:22:09;;;;;;;21.38;14.02;;;;;;;11.46;69.90;99029.44;5050002;27;101293;-78
2021/11/04 00:24:36;;;;;;;21.98;14.32;;;;;;;11.44;70.31;99018.16;5059796;27;98086;-79
2021/11/04 00:27:02;;;;;;;19.75;13.75;;;;;;;11.42;70.16;99013.91;5048053;27;99338;-79
2021/11/04 00:29:27;;;;;;;16.98;13.65;;;;;;;11.37;70.43;99010.69;5030247;27;97509;-79
2021/11/04 00:31:53;;;;;;;23.17;15.05;;;;;;;11.45;70.70;99005.84;5045944;27;101030;-79
2021/11/04 00:34:18;;;;;;;21.50;15.23;;;;;;;11.30;70.96;99003.19;5059622;27;97366;-79
2021/11/04 00:36:45;;;;;;;22.13;15.60;;;;;;;11.22;71.05;98983.53;5039087;27;97780;-79
2021/11/04 00:39:11;;;;;;;22.92;15.10;;;;;;;11.21;71.98;98993.22;5064516;27;96791;-79
2021/11/04 00:41:37;;;;;;;23.75;16.10;;;;;;;11.24;71.61;98990.41;5039112;27;101355;-79
2021/11/04 00:44:03;;;;;;;24.25;14.98;;;;;;;11.36;70.95;98983.59;5045392;27;101393;-79
2021/11/04 00:46:30;;;;;;;18.25;15.07;;;;;;;11.29;71.36;98956.84;5033062;27;97200;-79
2021/11/04 00:48:55;;;;;;;24.95;15.27;;;;;;;11.37;71.71;98966.88;5045728;27;97204;-79
2021/11/04 00:51:21;;;;;;;22.60;15.63;;;;;;;11.16;71.70;98953.22;5065584;27;101537;-80
2021/11/04 00:53:46;;;;;;;20.90;15.73;;;;;;;11.15;72.18;98955.94;5045123;27;100855;-79
2021/11/04 00:56:12;;;;;;;22.92;15.23;;;;;;;11.08;72.69;98939.69;5046886;27;96747;-78
2021/11/04 00:58:38;;;;;;;27.23;16.40;;;;;;;11.05;72.30;98921.47;5065789;27;96865;-79
2021/11/04 01:01:03;;;;;;;25.27;16.42;;;;;;;11.13;72.31;98937.66;5060904;27;98391;-79
2021/11/04 01:03:31;;;;;;;22.25;16.40;;;;;;;11.08;72.37;98932.69;5058345;27;97504;-78
2021/11/04 01:05:57;;;;;;;30.35;17.33;;;;;;;11.19;72.12;98936.44;5058421;27;96734;-78
2021/11/04 01:08:22;;;;;;;26.95;17.92;;;;;;;11.06;72.63;98917.94;5055616;27;97108;-79
2021/11/04 01:10:48;;;;;;;24.00;18.08;;;;;;;11.08;72.24;98931.81;5058254;27;98014;-79
2021/11/04 01:13:13;;;;;;;22.20;17.08;;;;;;;11.09;72.33;98921.22;5054227;27;101405;-78
2021/11/04 01:15:40;;;;;;;29.00;18.25;;;;;;;11.12;71.78;98904.44;5035018;27;97125;-79
2021/11/04 01:18:06;;;;;;;27.60;18.20;;;;;;;11.04;72.35;98898.78;5034535;27;97106;-78
2021/11/04 01:20:31;;;;;;;26.38;17.67;;;;;;;11.06;72.50;98908.28;5048666;27;100904;-79
2021/11/04 01:22:57;;;;;;;28.83;17.98;;;;;;;11.06;72.26;98910.91;5044664;27;101204;-78
2021/11/04 01:25:23;;;;;;;29.13;19.70;;;;;;;11.03;72.11;98913.72;5035359;27;96978;-78
2021/11/04 01:27:48;;;;;;;25.40;17.90;;;;;;;11.03;71.89;98916.34;5049510;27;97944;-79
2021/11/04 01:30:14;;;;;;;26.33;18.05;;;;;;;10.85;72.83;98902.50;5046993;27;101342;-78
2021/11/04 01:32:40;;;;;;;27.23;19.88;;;;;;;10.99;72.58;98909.56;5041996;27;100925;-79
2021/11/04 01:35:06;;;;;;;28.10;19.65;;;;;;;10.96;72.81;98901.84;5039826;27;96715;-79
2021/11/04 01:37:32;;;;;;;25.90;18.30;;;;;;;10.98;72.80;98907.88;5051829;27;96841;-79
2021/11/04 01:39:58;;;;;;;23.25;18.02;;;;;;;10.96;72.69;98898.38;5038584;27;101454;-79
2021/11/04 01:42:23;;;;;;;30.50;20.00;;;;;;;10.95;72.70;98881.78;5045560;27;98350;-79
2021/11/04 01:44:49;;;;;;;30.52;19.52;;;;;;;10.90;72.99;98881.22;5031021;27;96806;-80
2021/11/04 01:47:15;;;;;;;25.23;18.15;;;;;;;10.81;73.48;98866.84;5045407;27;96831;-81
2021/11/04 01:49:41;;;;;;;33.17;19.38;;;;;;;10.88;73.00;98852.44;5048432;27;101680;-78
2021/11/04 01:52:08;;;;;;;30.15;18.27;;;;;;;10.99;72.79;98859.66;5032639;27;101030;-79
2021/11/04 01:54:34;;;;;;;23.50;16.05;;;;;;;10.91;73.43;98846.16;5046005;27;97154;-78
2021/11/04 01:57:00;;;;;;;24.65;18.15;;;;;;;10.85;73.25;98852.63;5035780;27;97196;-78
2021/11/04 01:59:26;;;;;;;24.95;18.35;;;;;;;10.95;73.53;98855.53;5049494;27;101385;-79
2021/11/04 02:02:01;;;;;;;25.05;18.92;;;;;;;10.91;73.54;98863.66;5035673;27;101720;-80
2021/11/04 02:04:31;;;;;;;29.67;18.92;;;;;;;10.75;74.06;98847.97;5036220;27;96787;-79
2021/11/04 02:07:02;;;;;;;25.17;17.90;;;;;;;10.73;74.50;98860.34;5034212;27;96857;-79
2021/11/04 02:09:29;;;;;;;;;;;;;;;10.91;74.33;98869.78;5039593;27;101390;-80
2021/11/04 02:11:59;;;;;;;29.60;18.23;;;;;;;10.80;74.59;98861.69;5028413;27;99536;-79
2021/11/04 02:14:41;;;;;;;23.10;17.83;;;;;;;10.78;75.19;98850.44;5033670;27;96980;-79
2021/11/04 02:17:07;;;;;;;;;;;;;;;10.74;75.16;98844.53;5037002;27;98174;-78
2021/11/04 02:19:41;;;;;;;26.23;18.40;;;;;;;10.74;75.10;98848.94;5036156;27;100786;-78
2021/11/04 02:22:10;;;;;;;27.92;18.30;;;;;;;10.52;75.35;98804.69;5049408;27;101427;-79
2021/11/04 02:24:46;;;;;;;23.10;18.25;;;;;;;10.61;75.17;98815.50;5041032;27;97393;-79
2021/11/04 02:27:13;;;;;;;21.08;18.23;;;;;;;10.57;75.95;98823.66;5032818;27;97104;-80
2021/11/04 02:29:41;;;;;;;24.08;19.25;;;;;;;10.53;75.30;98793.25;5021963;27;101176;-78
2021/11/04 02:32:08;;;;;;;22.95;17.60;;;;;;;10.62;75.50;98829.50;5045508;27;101220;-78
2021/11/04 02:34:34;;;;;;;21.08;18.35;;;;;;;10.69;75.59;98829.97;5042055;27;96880;-78
2021/11/04 02:37:01;;;;;;;26.45;17.45;;;;;;;10.63;75.50;98826.75;5037741;27;97539;-78
2021/11/04 02:39:28;;;;;;;25.25;17.63;;;;;;;10.62;75.60;98825.09;5054755;27;98017;-79
2021/11/04 02:41:54;;;;;;;24.20;18.42;;;;;;;10.66;76.08;98825.75;5057232;27;98028;-79
2021/11/04 02:44:21;;;;;;;26.70;19.92;;;;;;;10.68;75.71;98833.53;5054583;27;97202;-79
2021/11/04 02:46:47;;;;;;;26.60;19.48;;;;;;;10.65;75.89;98818.81;5023276;27;96897;-83
2021/11/04 02:49:12;;;;;;;27.17;19.80;;;;;;;10.52;76.43;98815.19;5037333;27;98009;-79
2021/11/04 02:51:39;;;;;;;24.02;19.85;;;;;;;10.57;77.09;98818.41;5061967;27;97404;-79
2021/11/04 02:54:08;;;;;;;25.42;19.20;;;;;;;10.38;77.29;98787.13;5044617;27;97625;-79
2021/11/04 02:56:46;;;;;;;29.30;21.52;;;;;;;10.54;77.22;98819.44;5046324;27;96826;-79
2021/11/04 02:59:16;;;;;;;26.40;20.35;;;;;;;10.51;77.00;98808.28;5050778;27;98617;-79
2021/11/04 03:01:43;;;;;;;24.83;21.30;;;;;;;10.41;77.12;98779.06;5061161;27;97627;-79
2021/11/04 03:04:09;;;;;;;25.88;20.48;;;;;;;10.54;77.70;98798.44;5043863;27;96728;-79
2021/11/04 03:06:35;;;;;;;25.15;19.77;;;;;;;10.52;77.84;98802.91;5034253;27;97124;-79
2021/11/04 03:09:01;;;;;;;24.52;20.65;;;;;;;10.49;77.69;98789.97;5047898;27;98397;-79
2021/11/04 03:11:26;;;;;;;22.77;18.88;;;;;;;10.50;77.49;98783.81;5033863;27;100895;-79
2021/11/04 03:13:52;;;;;;;23.40;18.40;;;;;;;10.51;77.96;98776.78;5034836;27;96699;-80
2021/11/04 03:16:18;;;;;;;25.13;19.02;;;;;;;10.56;77.35;98762.47;5062617;27;97044;-79
2021/11/04 03:18:44;;;;;;;24.40;20.98;;;;;;;10.54;77.26;98764.31;5047271;27;100980;-79
2021/11/04 03:21:11;;;;;;;25.02;20.90;;;;;;;10.66;77.16;98770.63;5043527;27;101349;-79
2021/11/04 03:23:36;;;;;;;26.02;20.42;;;;;;;10.40;77.64;98743.28;5047110;27;97196;-79
2021/11/04 03:26:03;;;;;;;28.70;20.65;;;;;;;10.53;77.34;98765.28;5041181;27;97143;-78
2021/11/04 03:28:28;;;;;;;24.65;20.42;;;;;;;10.60;77.72;98773.63;5030040;27;101109;-79
2021/11/04 03:30:55;;;;;;;18.48;16.50;;;;;;;10.59;77.48;98766.69;5039580;27;101163;-78
2021/11/04 03:33:21;;;;;;;23.52;19.50;;;;;;;10.56;77.41;98770.34;5034049;27;96860;-80
2021/11/04 03:35:48;;;;;;;21.83;19.52;;;;;;;10.59;77.47;98780.66;5040649;27;96802;-83
2021/11/04 03:38:14;;;;;;;23.05;19.17;;;;;;;10.54;77.34;98772.19;5051403;27;101126;-78
2021/11/04 03:40:41;;;;;;;23.83;20.15;;;;;;;10.68;77.51;98778.44;5035015;27;100941;-79
2021/11/04 03:43:07;;;;;;;28.55;19.52;;;;;;;10.69;77.29;98769.63;5036737;27;96952;-78
2021/11/04 03:45:34;;;;;;;23.75;17.80;;;;;;;10.63;77.24;98771.66;5053818;27;97076;-79
2021/11/04 03:48:00;;;;;;;20.73;18.50;;;;;;;10.66;77.12;98765.38;5032257;27;101362;-79
2021/11/04 03:50:27;;;;;;;20.80;17.88;;;;;;;10.69;77.22;98764.38;5040440;27;97995;-79
2021/11/04 03:52:53;;;;;;;20.45;18.27;;;;;;;10.56;76.73;98746.72;5035979;27;96730;-79
2021/11/04 03:55:20;;;;;;;21.80;16.00;;;;;;;10.68;76.61;98762.69;5036817;27;97251;-79
2021/11/04 03:57:46;;;;;;;25.10;16.85;;;;;;;10.48;76.41;98714.00;5056366;27;99115;-79
2021/11/04 04:00:14;;;;;;;18.75;16.92;;;;;;;10.61;76.08;98720.19;5050811;27;101051;-80
2021/11/04 04:02:40;;;;;;;22.48;17.73;;;;;;;10.75;75.98;98740.38;5053513;27;97004;-79
2021/11/04 04:05:06;;;;;;;21.40;19.00;;;;;;;10.69;76.14;98738.13;5042632;27;97204;-78
2021/11/04 04:07:32;;;;;;;22.35;17.13;;;;;;;10.59;76.57;98722.09;5039080;27;101643;-79
2021/11/04 04:09:59;;;;;;;19.90;15.60;;;;;;;10.56;77.01;98728.34;5041835;27;99440;-79
2021/11/04 04:12:26;;;;;;;22.20;17.27;;;;;;;10.64;76.74;98726.09;5038545;27;97046;-80
2021/11/04 04:14:51;;;;;;;20.60;16.63;;;;;;;10.64;76.32;98725.25;5027459;27;97202;-82
2021/11/04 04:17:21;;;;;;;18.23;16.27;;;;;;;10.71;76.21;98704.78;5042428;27;101197;-79
2021/11/04 04:19:49;;;;;;;22.33;16.10;;;;;;;10.79;76.36;98707.75;5040397;27;101978;-78
2021/11/04 04:22:15;;;;;;;17.52;15.77;;;;;;;10.60;76.12;98692.28;5041447;27;97486;-79
2021/11/04 04:24:41;;;;;;;18.48;15.18;;;;;;;10.63;76.15;98690.31;5044976;27;96934;-78
2021/11/04 04:27:06;;;;;;;20.67;16.38;;;;;;;10.65;76.01;98674.50;5048037;27;101280;-81
2021/11/04 04:29:32;;;;;;;22.83;17.33;;;;;;;10.73;75.62;98681.88;5027544;27;101789;-79
2021/11/04 04:31:59;;;;;;;19.60;16.13;;;;;;;10.70;75.90;98690.78;5034013;27;96704;-79
2021/11/04 04:34:25;;;;;;;18.55;16.10;;;;;;;10.79;75.67;98692.88;5046568;27;97524;-79
2021/11/04 04:36:51;;;;;;;22.52;17.48;;;;;;;10.77;75.66;98680.78;5041614;27;101099;-81
2021/11/04 04:39:17;;;;;;;21.52;16.35;;;;;;;10.82;75.64;98661.19;5049361;27;97894;-78
2021/11/04 04:41:42;;;;;;;19.50;16.20;;;;;;;10.71;75.88;98650.50;5055684;27;97007;-78
2021/11/04 04:44:08;;;;;;;19.95;16.33;;;;;;;10.69;75.71;98659.38;5068234;27;97917;-79
2021/11/04 04:46:33;;;;;;;21.63;17.98;;;;;;;10.60;75.67;98638.00;5053612;27;97408;-79
2021/11/04 04:48:59;;;;;;;19.23;16.48;;;;;;;10.61;75.81;98637.06;5037765;27;101182;-79
2021/11/04 04:51:25;;;;;;;18.88;16.88;;;;;;;10.60;76.07;98639.81;5043390;27;97364;-79
2021/11/04 04:53:50;;;;;;;19.95;17.45;;;;;;;10.64;75.77;98631.63;5035487;27;96970;-82
2021/11/04 04:56:16;;;;;;;19.60;16.70;;;;;;;10.70;75.47;98622.53;5045084;27;101598;-78
2021/11/04 04:58:41;;;;;;;20.63;18.27;;;;;;;10.70;75.35;98621.69;5043753;27;101091;-78
2021/11/04 05:01:07;;;;;;;18.23;13.80;;;;;;;10.67;75.58;98614.84;5044790;27;97051;-79
2021/11/04 05:03:32;;;;;;;19.52;14.15;;;;;;;10.71;75.07;98599.78;5031847;27;97090;-78
2021/11/04 05:05:58;;;;;;;18.35;14.05;;;;;;;10.76;75.20;98597.69;5051388;27;101683;-78
2021/11/04 05:08:24;;;;;;;18.30;14.07;;;;;;;10.69;75.40;98604.28;5035557;27;100959;-79
2021/11/04 05:10:49;;;;;;;19.15;14.27;;;;;;;10.78;74.88;98596.66;5053857;27;98426;-78
2021/11/04 05:13:15;;;;;;;18.55;14.13;;;;;;;10.74;75.28;98589.94;5034748;27;97016;-78
2021/11/04 05:15:40;;;;;;;17.52;13.73;;;;;;;10.72;75.06;98570.81;5051641;27;101015;-78
2021/11/04 05:18:08;;;;;;;17.73;14.60;;;;;;;10.70;75.32;98575.31;5033593;27;101018;-78
2021/11/04 05:20:36;;;;;;;21.20;14.98;;;;;;;10.77;75.10;98581.88;5049018;27;96822;-79
2021/11/04 05:23:01;;;;;;;21.40;14.63;;;;;;;10.74;75.09;98562.84;5044813;27;97228;-79
2021/11/04 05:25:27;;;;;;;16.85;13.38;;;;;;;10.74;75.58;98566.31;5047280;27;100301;-79
2021/11/04 05:27:53;;;;;;;20.27;14.88;;;;;;;10.80;75.23;98570.34;5050202;27;101600;-83
2021/11/04 05:30:19;;;;;;;21.77;16.20;;;;;;;10.99;74.93;98562.13;5047394;27;98041;-79
2021/11/04 05:32:46;;;;;;;19.75;16.08;;;;;;;10.78;75.17;98553.84;5045845;27;96852;-78
2021/11/04 05:35:13;;;;;;;24.08;17.48;;;;;;;10.85;74.57;98569.13;5043566;27;101432;-78
2021/11/04 05:37:38;;;;;;;25.88;19.15;;;;;;;10.85;75.13;98570.91;5051155;27;101584;-79
2021/11/04 05:40:05;;;;;;;21.60;17.50;;;;;;;10.83;74.96;98562.28;5052271;27;97178;-79
2021/11/04 05:42:30;;;;;;;20.38;16.88;;;;;;;10.77;74.84;98536.41;5024329;27;97105;-79
2021/11/04 05:44:56;;;;;;;24.45;18.52;;;;;;;10.87;74.56;98555.88;5044200;27;101560;-79
2021/11/04 05:47:21;;;;;;;25.95;19.67;;;;;;;10.89;74.87;98540.88;5052589;27;101136;-80
2021/11/04 05:49:47;;;;;;;24.77;20.73;;;;;;;10.85;75.11;98534.16;5034768;27;97291;-79
2021/11/04 05:52:13;;;;;;;23.38;17.58;;;;;;;10.86;75.06;98539.31;5043296;27;97279;-79
2021/11/04 05:54:39;;;;;;;21.33;17.55;;;;;;;10.74;75.14;98526.13;5048584;27;97940;-79
2021/11/04 05:57:04;;;;;;;20.25;16.23;;;;;;;10.90;75.20;98545.19;5017718;27;101340;-79
2021/11/04 05:59:30;;;;;;;18.17;15.68;;;;;;;10.81;75.10;98522.16;5040655;27;97056;-79
2021/11/04 06:01:56;;;;;;;17.25;15.30;;;;;;;10.85;75.47;98536.78;5045501;27;97150;-79
2021/11/04 06:04:22;;;;;;;20.60;14.18;;;;;;;10.77;75.62;98511.00;5052160;27;101336;-81
2021/11/04 06:06:48;;;;;;;16.70;14.15;;;;;;;10.91;75.55;98506.66;5049938;27;101339;-80
2021/11/04 06:09:13;;;;;;;17.23;15.43;;;;;;;10.86;75.76;98506.97;5034447;27;96796;-79
2021/11/04 06:11:39;;;;;;;21.23;14.98;;;;;;;10.81;75.76;98499.38;5065452;27;96835;-84
2021/11/04 06:14:05;;;;;;;19.00;14.35;;;;;;;10.80;76.03;98496.84;5049640;27;97996;-84
2021/11/04 06:16:31;;;;;;;19.25;15.60;;;;;;;10.96;75.42;98487.03;5036511;27;101502;-84
2021/11/04 06:18:57;;;;;;;17.38;15.23;;;;;;;10.90;75.93;98499.72;5053299;27;97207;-82
2021/11/04 06:21:22;;;;;;;19.27;15.35;;;;;;;11.01;75.25;98508.59;5069442;27;96884;-90
2021/11/04 06:23:48;;;;;;;19.92;16.77;;;;;;;10.87;75.72;98500.75;5052095;27;98375;-85
2021/11/04 06:26:14;;;;;;;20.67;17.17;;;;;;;10.93;75.78;98518.75;5067393;27;97398;-85
2021/11/04 06:28:40;;;;;;;21.90;16.77;;;;;;;10.92;75.22;98516.22;5049640;27;96834;-85
2021/11/04 06:31:05;;;;;;;20.95;16.08;;;;;;;10.94;75.43;98512.56;5017802;27;97031;-85
2021/11/04 06:33:31;;;;;;;26.95;18.15;;;;;;;10.85;75.67;98498.25;5051615;27;101189;-85
2021/11/04 06:35:56;;;;;;;21.33;16.05;;;;;;;10.88;75.39;98505.09;5057209;27;96989;-85
2021/11/04 06:38:22;;;;;;;23.17;15.77;;;;;;;10.82;75.78;98485.31;5045538;27;96680;-89
2021/11/04 06:40:48;;;;;;;17.67;15.27;;;;;;;10.93;75.38;98491.66;5030943;27;97339;-85
2021/11/04 06:43:14;;;;;;;16.75;15.00;;;;;;;10.95;75.04;98501.13;5054271;27;102032;-82
2021/11/04 06:45:47;;;;;;;19.58;15.05;;;;;;;11.02;75.02;98493.69;5049029;27;97967;-82
2021/11/04 06:48:22;;;;;;;16.08;12.35;;;;;;;10.87;75.33;98485.00;5043949;27;96895;-86
2021/11/04 06:50:50;;;;;;;15.88;12.63;;;;;;;10.86;75.69;98499.09;5070705;27;97346;-86
2021/11/04 06:53:21;;;;;;;13.68;12.30;;;;;;;10.88;75.04;98484.09;5045753;27;101663;-86
2021/11/04 06:55:47;;;;;;;13.13;11.68;;;;;;;10.91;75.22;98494.41;5036106;27;100481;-85
2021/11/04 06:58:14;;;;;;;13.45;11.50;;;;;;;10.96;75.03;98479.16;5047491;27;96720;-86
2021/11/04 07:00:45;;;;;;;14.38;12.65;;;;;;;10.90;74.82;98473.47;5045212;27;96815;-86
2021/11/04 07:03:20;;;;;;;16.02;11.93;;;;;;;10.77;74.62;98457.69;5037073;27;101033;-86
2021/11/04 07:05:46;;;;;;;16.75;12.18;;;;;;;10.96;74.82;98473.91;5042671;27;100095;-86
2021/11/04 07:08:26;;;;;;;18.13;12.27;;;;;;;10.88;74.63;98442.94;5027650;27;97071;-86
2021/11/04 07:11:00;;;;;;;16.83;12.18;;;;;;;11.03;74.38;98453.38;5068419;27;97317;-85
2021/11/04 07:13:28;;;;;;;14.48;12.02;;;;;;;10.95;74.40;98435.47;5052904;27;97596;-86
2021/11/04 07:15:58;;;;;;;13.38;11.93;;;;;;;11.17;73.81;98457.69;5035597;27;98261;-85
2021/11/04 07:18:25;;;;;;;15.20;12.73;;;;;;;11.02;73.71;98436.75;5050283;27;98904;-85
2021/11/04 07:21:00;;;;;;;14.32;12.02;;;;;;;11.08;74.20;98456.53;5059364;27;96970;-85
2021/11/04 07:23:40;;;;;;;15.25;12.57;;;;;;;11.12;74.72;98444.88;5061220;27;97479;-86
2021/11/04 07:26:07;;;;;;;15.52;12.80;;;;;;;11.16;74.11;98429.75;5054517;27;98288;-86
2021/11/04 07:28:38;;;;;;;16.73;13.93;;;;;;;11.09;74.38;98418.84;5032844;27;96809;-86
2021/11/04 07:31:13;;;;;;;20.30;14.18;;;;;;;11.10;74.86;98431.00;5033475;27;96825;-86
2021/11/04 07:33:46;;;;;;;19.20;14.25;;;;;;;11.08;74.98;98435.50;5045531;27;97602;-86
2021/11/04 07:36:17;;;;;;;21.45;13.48;;;;;;;10.96;75.53;98437.16;5054211;27;98451;-86
2021/11/04 07:38:47;;;;;;;18.25;14.48;;;;;;;11.01;75.57;98429.84;5061295;27;96763;-85
2021/11/04 07:41:15;;;;;;;14.65;12.35;;;;;;;10.93;75.99;98424.25;5054006;27;97243;-85
2021/11/04 07:43:41;;;;;;;18.90;13.98;;;;;;;10.94;76.42;98410.19;5036337;27;97878;-86
2021/11/04 07:46:07;;;;;;;19.10;14.18;;;;;;;10.96;76.32;98402.19;5034693;27;101509;-86
2021/11/04 07:48:32;;;;;;;22.13;15.68;;;;;;;10.71;76.58;98367.06;5049121;27;96717;-88
2021/11/04 07:50:58;;;;;;;19.83;15.95;;;;;;;10.70;76.49;98368.00;5050088;27;96848;-85
2021/11/04 07:53:24;;;;;;;20.25;18.05;;;;;;;10.81;76.56;98391.75;5065740;27;101039;-85
2021/11/04 07:55:51;;;;;;;20.70;17.45;;;;;;;10.81;76.59;98401.41;5041035;27;100839;-84
2021/11/04 07:58:17;;;;;;;23.35;18.02;;;;;;;10.71;77.19;98376.75;5052774;27;97017;-83
2021/11/04 08:00:43;;;;;;;21.33;18.85;;;;;;;10.77;77.09;98384.19;5053263;27;97166;-81
2021/11/04 08:03:09;;;;;;;25.30;19.90;;;;;;;10.95;76.84;98387.41;5053707;27;97982;-87
2021/11/04 08:05:35;;;;;;;24.50;20.48;;;;;;;10.88;77.34;98374.69;5069379;27;98390;-84
2021/11/04 08:08:01;;;;;;;21.85;19.15;;;;;;;10.75;77.39;98346.72;5048611;27;97386;-84
2021/11/04 08:10:27;;;;;;;24.73;20.40;;;;;;;10.89;77.12;98372.88;5049949;27;97500;-84
2021/11/04 08:12:52;;;;;;;24.58;20.70;;;;;;;10.99;76.31;98365.25;5052652;27;100922;-83
2021/11/04 08:15:18;;;;;;;21.27;19.08;;;;;;;10.74;76.89;98329.28;5034709;27;101453;-82
2021/11/04 08:17:44;;;;;;;22.88;19.42;;;;;;;10.94;76.89;98346.31;5032624;27;96711;-84
2021/11/04 08:20:10;;;;;;;25.42;19.50;;;;;;;11.09;76.83;98353.19;5055248;27;96850;-84
2021/11/04 08:22:36;;;;;;;23.55;19.23;;;;;;;11.14;76.70;98353.72;5038853;27;100732;-84
2021/11/04 08:25:03;;;;;;;24.17;21.67;;;;;;;11.21;76.68;98328.72;5037149;27;101164;-83
2021/11/04 08:27:29;;;;;;;26.15;21.73;;;;;;;11.30;75.73;98308.88;5045411;27;97264;-83
2021/11/04 08:29:55;;;;;;;25.33;20.23;;;;;;;11.28;76.20;98334.38;5041302;27;97196;-83
2021/11/04 08:32:21;;;;;;;27.70;19.20;;;;;;;11.44;76.00;98336.81;5046720;27;97578;-82
2021/11/04 08:34:46;;;;;;;22.63;18.33;;;;;;;11.45;75.60;98333.22;5058393;27;100828;-83
2021/11/04 08:37:12;;;;;;;19.02;16.67;;;;;;;11.27;75.74;98311.69;5051650;27;97309;-83
2021/11/04 08:39:39;;;;;;;20.90;17.40;;;;;;;11.09;76.69;98313.81;5040300;27;97216;-83
2021/11/04 08:42:05;;;;;;;21.80;17.33;;;;;;;11.27;76.70;98315.16;5061842;27;97889;-83
2021/11/04 08:44:32;;;;;;;19.50;17.35;;;;;;;11.30;76.61;98306.25;5030603;27;101380;-83
2021/11/04 08:51:01;;;;;;;21.10;16.88;;;;;;;11.23;76.94;98291.88;5147018;22;105352;-82
2021/11/04 08:53:27;;;;;;;20.83;16.15;;;;;;;11.43;76.57;98293.09;4993900;28;101792;-84
2021/11/04 08:55:52;;;;;;;19.60;14.88;;;;;;;11.19;77.22;98264.13;4989252;28;98701;-84
2021/11/04 08:58:18;;;;;;;17.88;15.02;;;;;;;11.33;76.73;98288.47;4990455;28;97502;-82
2021/11/04 09:00:44;;;;;;;21.30;16.48;;;;;;;11.39;76.57;98289.00;4979114;28;97185;-84
2021/11/04 09:03:10;;;;;;;19.83;15.60;;;;;;;11.28;76.94;98277.44;4969134;28;101248;-84
2021/11/04 09:05:38;;;;;;;20.35;16.17;;;;;;;11.32;77.15;98280.72;4988910;28;97950;-84
2021/11/04 09:08:05;;;;;;;20.35;15.73;;;;;;;11.29;77.58;98286.19;4991150;28;96811;-84
2021/11/04 09:10:31;;;;;;;18.23;16.00;;;;;;;11.42;77.38;98287.00;5010836;28;97324;-85
2021/11/04 09:12:56;;;;;;;22.88;16.35;;;;;;;11.40;77.09;98281.00;5010856;28;98008;-83
2021/11/04 09:15:22;;;;;;;20.80;16.67;;;;;;;11.33;77.22;98274.50;4977660;28;101560;-84
2021/11/04 09:17:48;;;;;;;19.98;15.35;;;;;;;11.27;77.44;98257.38;4986543;28;96834;-84
2021/11/04 09:20:16;;;;;;;21.08;16.40;;;;;;;11.28;77.92;98261.69;4991698;28;96888;-84
2021/11/04 09:22:45;;;;;;;17.20;14.95;;;;;;;11.33;77.68;98285.00;4969304;28;101438;-81
2021/11/04 09:25:10;;;;;;;21.92;15.93;;;;;;;11.40;77.12;98265.25;4977571;28;100456;-83
2021/11/04 09:27:36;;;;;;;20.13;15.95;;;;;;;11.39;77.60;98273.25;5011644;28;96714;-91
2021/11/04 09:30:03;;;;;;;19.52;15.30;;;;;;;11.45;77.43;98278.06;4994375;28;96955;-78
2021/11/04 09:32:28;;;;;;;19.23;15.80;;;;;;;11.43;77.50;98277.31;4984526;28;101492;-80
2021/11/04 09:34:54;;;;;;;20.27;15.52;;;;;;;11.47;77.20;98278.81;4985624;28;101320;-80
2021/11/04 09:37:20;;;;;;;17.67;13.75;;;;;;;11.38;77.84;98255.81;4988995;28;96833;-77
2021/11/04 09:39:48;;;;;;;18.35;14.63;;;;;;;11.54;77.27;98267.75;4995603;28;97213;-77
2021/11/04 09:42:19;;;;;;;21.77;14.73;;;;;;;11.61;76.81;98268.16;4981852;28;101354;-84
2021/11/04 09:44:49;;;;;;;19.60;14.13;;;;;;;11.60;77.26;98269.09;4989846;28;97398;-85
2021/11/04 09:47:20;;;;;;;18.13;14.73;;;;;;;11.59;77.37;98253.44;4972898;28;96698;-84
2021/11/04 09:49:45;;;;;;;19.15;14.75;;;;;;;11.63;77.25;98266.25;4980770;28;96915;-85
2021/11/04 09:52:11;;;;;;;20.40;15.20;;;;;;;11.64;77.00;98262.69;4977390;28;101680;-83
2021/11/04 09:54:37;;;;;;;21.95;14.63;;;;;;;11.70;76.89;98264.88;4992775;28;98460;-84
2021/11/04 09:57:07;;;;;;;20.02;15.52;;;;;;;11.82;76.41;98265.78;4993792;28;97169;-83
2021/11/04 09:59:33;;;;;;;17.90;15.55;;;;;;;11.54;76.94;98224.88;4989429;28;97952;-84
2021/11/04 10:01:59;;;;;;;17.42;14.68;;;;;;;11.69;76.53;98243.94;4977936;28;101041;-84
2021/11/04 10:04:32;;;;;;;20.58;14.77;;;;;;;11.62;76.63;98240.94;4968201;28;101695;-83
2021/11/04 10:06:58;;;;;;;20.60;16.38;;;;;;;11.73;76.73;98251.53;4980070;28;96940;-84
2021/11/04 10:09:26;;;;;;;20.10;15.05;;;;;;;11.63;76.68;98218.94;4993057;28;96928;-83
2021/11/04 10:11:54;;;;;;;19.80;15.65;;;;;;;11.84;76.03;98252.53;4989647;28;97705;-83
2021/11/04 10:14:19;;;;;;;19.52;15.48;;;;;;;11.84;76.50;98244.63;4993455;28;98046;-84
2021/11/04 10:16:45;;;;;;;16.75;14.70;;;;;;;11.91;75.42;98266.97;4996112;28;97837;-84
2021/11/04 10:19:13;;;;;;;21.05;15.65;;;;;;;11.86;76.15;98255.94;4995997;28;97536;-84
2021/11/04 10:21:42;;;;;;;20.17;14.52;;;;;;;11.90;76.22;98260.88;4977126;28;101726;-84
2021/11/04 10:24:16;;;;;;;18.20;14.07;;;;;;;11.95;75.68;98240.31;5003968;28;98121;-84
2021/11/04 10:26:42;;;;;;;16.52;14.13;;;;;;;12.04;75.55;98237.97;4993552;28;96752;-84
2021/11/04 10:29:10;;;;;;;16.38;14.15;;;;;;;12.05;75.81;98242.31;4994863;28;96913;-84
2021/11/04 10:31:41;;;;;;;17.13;14.95;;;;;;;12.10;75.54;98245.41;4998727;28;101053;-82
2021/11/04 10:34:35;;;;;;;19.13;14.20;;;;;;;12.27;75.90;98247.66;4977543;28;99241;-83
2021/11/04 10:37:20;;;;;;;17.33;14.27;;;;;;;12.40;75.20;98253.69;4994732;28;97282;-82
2021/11/04 10:39:47;;;;;;;20.85;15.25;;;;;;;12.68;74.39;98238.44;5011209;28;97028;-79
2021/11/04 10:42:13;;;;;;;17.27;13.30;;;;;;;12.71;74.39;98242.66;4993774;28;98298;-77
2021/11/04 10:44:39;;;;;;;16.25;13.77;;;;;;;12.62;74.47;98237.16;4989140;28;101261;-89
2021/11/04 10:47:05;;;;;;;16.30;14.45;;;;;;;12.53;75.33;98224.66;4973899;28;96741;-87
2021/11/04 10:49:44;;;;;;;21.90;15.10;;;;;;;12.55;75.33;98217.50;4987247;28;96859;-87
2021/11/04 10:52:10;;;;;;;18.45;13.25;;;;;;;12.61;75.62;98224.91;4991308;28;101608;-87
2021/11/04 10:54:49;;;;;;;17.10;13.05;;;;;;;12.62;75.59;98220.50;4994523;28;97891;-87
2021/11/04 10:57:38;;;;;;;18.25;13.43;;;;;;;12.54;75.37;98205.31;5000014;28;98415;-86
2021/11/04 11:00:21;;;;;;;15.57;13.95;;;;;;;12.60;75.72;98218.00;4993158;28;96770;-87
2021/11/04 11:03:21;;;;;;;14.75;13.05;;;;;;;12.69;76.17;98217.28;5023210;28;98304;-87
2021/11/04 11:05:47;;;;;;;16.27;13.30;;;;;;;12.64;76.53;98192.28;4975957;28;98427;-86
2021/11/04 11:08:13;;;;;;;15.13;13.52;;;;;;;12.89;75.78;98223.66;4976903;28;96772;-87
2021/11/04 11:10:41;;;;;;;19.02;13.13;;;;;;;12.96;74.69;98202.13;5006125;28;97189;-88
2021/11/04 11:13:07;;;;;;;13.60;11.95;;;;;;;13.21;74.93;98203.72;4993446;28;101401;-87
2021/11/04 11:15:34;;;;;;;14.25;12.38;;;;;;;13.46;74.43;98215.81;5007321;28;97894;-87
2021/11/04 11:18:00;;;;;;;13.38;11.77;;;;;;;13.58;74.21;98199.88;5010825;28;97367;-88